sensor_id;sensor_type;location;lat;lon;timestamp;P1;durP1;ratioP1;P2;durP2;ratioP2
66893;SDS011;53801;55.786;49.142;2023-04-01T00:00:25;5.37;;;2.60;;
66893;SDS011;53801;55.786;49.142;2023-04-01T00:02:50;6.22;;;2.78;;
66893;SDS011;53801;55.786;49.142;2023-04-01T00:05:16;6.30;;;2.80;;
66893;SDS011;53801;55.786;49.142;2023-04-01T00:07:41;5.03;;;2.30;;
66893;SDS011;53801;55.786;49.142;2023-04-01T00:10:09;5.88;;;2.67;;
66893;SDS011;53801;55.786;49.142;2023-04-01T00:12:35;6.97;;;2.78;;
66893;SDS011;53801;55.786;49.142;2023-04-01T00:15:00;7.93;;;2.77;;
66893;SDS011;53801;55.786;49.142;2023-04-01T00:17:26;5.30;;;2.25;;
66893;SDS011;53801;55.786;49.142;2023-04-01T00:19:54;6.27;;;3.00;;
66893;SDS011;53801;55.786;49.142;2023-04-01T00:22:19;6.10;;;2.60;;
66893;SDS011;53801;55.786;49.142;2023-04-01T00:24:45;6.03;;;2.78;;
66893;SDS011;53801;55.786;49.142;2023-04-01T00:27:10;6.60;;;2.47;;
66893;SDS011;53801;55.786;49.142;2023-04-01T00:29:36;5.60;;;2.70;;
66893;SDS011;53801;55.786;49.142;2023-04-01T00:32:01;6.07;;;2.63;;
66893;SDS011;53801;55.786;49.142;2023-04-01T00:34:26;10.40;;;2.83;;
66893;SDS011;53801;55.786;49.142;2023-04-01T00:36:52;5.80;;;2.33;;
66893;SDS011;53801;55.786;49.142;2023-04-01T00:39:18;5.68;;;2.40;;
66893;SDS011;53801;55.786;49.142;2023-04-01T00:41:43;4.72;;;1.95;;
66893;SDS011;53801;55.786;49.142;2023-04-01T00:44:16;6.30;;;2.70;;
66893;SDS011;53801;55.786;49.142;2023-04-01T00:46:43;6.55;;;2.47;;
66893;SDS011;53801;55.786;49.142;2023-04-01T00:49:08;6.40;;;2.60;;
66893;SDS011;53801;55.786;49.142;2023-04-01T00:51:34;5.85;;;2.53;;
66893;SDS011;53801;55.786;49.142;2023-04-01T00:54:01;5.18;;;2.13;;
66893;SDS011;53801;55.786;49.142;2023-04-01T00:59:02;5.22;;;2.30;;
66893;SDS011;53801;55.786;49.142;2023-04-01T01:01:28;8.00;;;2.45;;
66893;SDS011;53801;55.786;49.142;2023-04-01T01:03:54;4.70;;;2.00;;
66893;SDS011;53801;55.786;49.142;2023-04-01T01:06:39;5.47;;;2.35;;
66893;SDS011;53801;55.786;49.142;2023-04-01T01:11:42;5.40;;;2.05;;
66893;SDS011;53801;55.786;49.142;2023-04-01T01:14:24;4.37;;;1.80;;
66893;SDS011;53801;55.786;49.142;2023-04-01T01:16:56;5.15;;;1.88;;
66893;SDS011;53801;55.786;49.142;2023-04-01T01:22:08;4.18;;;1.73;;
66893;SDS011;53801;55.786;49.142;2023-04-01T01:27:15;3.57;;;1.53;;
66893;SDS011;53801;55.786;49.142;2023-04-01T01:32:40;4.78;;;1.80;;
66893;SDS011;53801;55.786;49.142;2023-04-01T01:37:42;4.18;;;1.75;;
66893;SDS011;53801;55.786;49.142;2023-04-01T01:40:09;4.17;;;1.90;;
66893;SDS011;53801;55.786;49.142;2023-04-01T01:42:38;3.67;;;1.60;;
66893;SDS011;53801;55.786;49.142;2023-04-01T01:45:05;4.20;;;1.52;;
66893;SDS011;53801;55.786;49.142;2023-04-01T01:47:31;4.10;;;1.70;;
66893;SDS011;53801;55.786;49.142;2023-04-01T01:49:57;5.20;;;1.93;;
66893;SDS011;53801;55.786;49.142;2023-04-01T01:52:23;4.50;;;2.10;;
66893;SDS011;53801;55.786;49.142;2023-04-01T01:54:49;3.20;;;1.57;;
66893;SDS011;53801;55.786;49.142;2023-04-01T01:57:14;5.63;;;1.60;;
66893;SDS011;53801;55.786;49.142;2023-04-01T01:59:40;4.27;;;2.00;;
66893;SDS011;53801;55.786;49.142;2023-04-01T02:02:07;5.22;;;1.73;;
66893;SDS011;53801;55.786;49.142;2023-04-01T02:04:35;3.33;;;1.55;;
66893;SDS011;53801;55.786;49.142;2023-04-01T02:07:04;10.00;;;1.90;;
66893;SDS011;53801;55.786;49.142;2023-04-01T02:09:32;7.00;;;1.67;;
66893;SDS011;53801;55.786;49.142;2023-04-01T02:12:00;4.25;;;1.73;;
66893;SDS011;53801;55.786;49.142;2023-04-01T02:14:37;4.97;;;1.60;;
66893;SDS011;53801;55.786;49.142;2023-04-01T02:17:15;4.97;;;1.70;;
66893;SDS011;53801;55.786;49.142;2023-04-01T02:20:04;4.80;;;1.65;;
66893;SDS011;53801;55.786;49.142;2023-04-01T02:22:31;3.53;;;1.50;;
66893;SDS011;53801;55.786;49.142;2023-04-01T02:25:06;12.88;;;2.20;;
66893;SDS011;53801;55.786;49.142;2023-04-01T02:27:33;4.93;;;2.20;;
66893;SDS011;53801;55.786;49.142;2023-04-01T02:29:58;4.23;;;1.50;;
66893;SDS011;53801;55.786;49.142;2023-04-01T02:32:24;3.78;;;1.80;;
66893;SDS011;53801;55.786;49.142;2023-04-01T02:34:50;5.07;;;1.90;;
66893;SDS011;53801;55.786;49.142;2023-04-01T02:37:15;7.32;;;2.20;;
66893;SDS011;53801;55.786;49.142;2023-04-01T02:39:41;4.07;;;1.90;;
66893;SDS011;53801;55.786;49.142;2023-04-01T02:42:08;8.80;;;1.58;;
66893;SDS011;53801;55.786;49.142;2023-04-01T02:44:34;4.47;;;2.10;;
66893;SDS011;53801;55.786;49.142;2023-04-01T02:46:59;5.93;;;1.83;;
66893;SDS011;53801;55.786;49.142;2023-04-01T02:49:25;3.92;;;2.17;;
66893;SDS011;53801;55.786;49.142;2023-04-01T02:51:50;4.35;;;1.80;;
66893;SDS011;53801;55.786;49.142;2023-04-01T02:54:17;4.57;;;1.77;;
66893;SDS011;53801;55.786;49.142;2023-04-01T02:56:42;3.92;;;1.58;;
66893;SDS011;53801;55.786;49.142;2023-04-01T02:59:08;4.10;;;1.73;;
66893;SDS011;53801;55.786;49.142;2023-04-01T03:01:33;4.43;;;2.00;;
66893;SDS011;53801;55.786;49.142;2023-04-01T03:03:58;5.00;;;2.13;;
66893;SDS011;53801;55.786;49.142;2023-04-01T03:06:24;6.20;;;2.20;;
66893;SDS011;53801;55.786;49.142;2023-04-01T03:08:49;3.88;;;2.05;;
66893;SDS011;53801;55.786;49.142;2023-04-01T03:11:15;3.73;;;1.70;;
66893;SDS011;53801;55.786;49.142;2023-04-01T03:13:40;5.23;;;2.30;;
66893;SDS011;53801;55.786;49.142;2023-04-01T03:16:06;7.63;;;2.60;;
66893;SDS011;53801;55.786;49.142;2023-04-01T03:18:31;6.05;;;2.10;;
66893;SDS011;53801;55.786;49.142;2023-04-01T03:20:57;6.50;;;2.27;;
66893;SDS011;53801;55.786;49.142;2023-04-01T03:23:22;4.80;;;1.90;;
66893;SDS011;53801;55.786;49.142;2023-04-01T03:25:49;4.63;;;1.98;;
66893;SDS011;53801;55.786;49.142;2023-04-01T03:28:15;6.07;;;2.30;;
66893;SDS011;53801;55.786;49.142;2023-04-01T03:30:40;4.73;;;2.20;;
66893;SDS011;53801;55.786;49.142;2023-04-01T03:33:06;4.33;;;1.90;;
66893;SDS011;53801;55.786;49.142;2023-04-01T03:35:31;4.73;;;2.13;;
66893;SDS011;53801;55.786;49.142;2023-04-01T03:37:57;6.40;;;2.03;;
66893;SDS011;53801;55.786;49.142;2023-04-01T03:40:23;10.40;;;2.43;;
66893;SDS011;53801;55.786;49.142;2023-04-01T03:42:49;4.78;;;1.65;;
66893;SDS011;53801;55.786;49.142;2023-04-01T03:45:14;5.13;;;2.13;;
66893;SDS011;53801;55.786;49.142;2023-04-01T03:47:40;7.70;;;2.10;;
66893;SDS011;53801;55.786;49.142;2023-04-01T03:50:06;6.60;;;2.20;;
66893;SDS011;53801;55.786;49.142;2023-04-01T03:52:31;5.22;;;2.28;;
66893;SDS011;53801;55.786;49.142;2023-04-01T03:54:57;7.00;;;2.50;;
66893;SDS011;53801;55.786;49.142;2023-04-01T03:57:22;5.38;;;1.90;;
66893;SDS011;53801;55.786;49.142;2023-04-01T03:59:48;5.00;;;2.28;;
66893;SDS011;53801;55.786;49.142;2023-04-01T04:02:13;5.37;;;2.60;;
66893;SDS011;53801;55.786;49.142;2023-04-01T04:04:39;4.53;;;2.00;;
66893;SDS011;53801;55.786;49.142;2023-04-01T04:07:04;6.00;;;2.40;;
66893;SDS011;53801;55.786;49.142;2023-04-01T04:09:30;4.90;;;2.33;;
66893;SDS011;53801;55.786;49.142;2023-04-01T04:11:56;5.85;;;2.78;;
66893;SDS011;53801;55.786;49.142;2023-04-01T04:14:22;6.70;;;3.10;;
66893;SDS011;53801;55.786;49.142;2023-04-01T04:16:47;5.25;;;2.10;;
66893;SDS011;53801;55.786;49.142;2023-04-01T04:19:13;4.00;;;1.57;;
66893;SDS011;53801;55.786;49.142;2023-04-01T04:21:39;8.70;;;2.30;;
66893;SDS011;53801;55.786;49.142;2023-04-01T04:24:04;6.35;;;2.63;;
66893;SDS011;53801;55.786;49.142;2023-04-01T04:26:30;8.80;;;2.83;;
66893;SDS011;53801;55.786;49.142;2023-04-01T04:28:55;6.90;;;3.17;;
66893;SDS011;53801;55.786;49.142;2023-04-01T04:31:21;5.45;;;2.58;;
66893;SDS011;53801;55.786;49.142;2023-04-01T04:33:47;4.63;;;2.38;;
66893;SDS011;53801;55.786;49.142;2023-04-01T04:36:13;4.20;;;2.20;;
66893;SDS011;53801;55.786;49.142;2023-04-01T04:38:42;7.33;;;2.13;;
66893;SDS011;53801;55.786;49.142;2023-04-01T04:41:11;6.57;;;2.70;;
66893;SDS011;53801;55.786;49.142;2023-04-01T04:43:38;5.60;;;2.80;;
66893;SDS011;53801;55.786;49.142;2023-04-01T04:46:04;6.93;;;2.83;;
66893;SDS011;53801;55.786;49.142;2023-04-01T04:48:30;4.32;;;2.20;;
66893;SDS011;53801;55.786;49.142;2023-04-01T04:50:56;11.53;;;3.33;;
66893;SDS011;53801;55.786;49.142;2023-04-01T04:53:21;5.03;;;2.40;;
66893;SDS011;53801;55.786;49.142;2023-04-01T04:55:47;7.05;;;2.55;;
66893;SDS011;53801;55.786;49.142;2023-04-01T04:58:13;6.33;;;2.57;;
66893;SDS011;53801;55.786;49.142;2023-04-01T05:00:39;5.50;;;2.35;;
66893;SDS011;53801;55.786;49.142;2023-04-01T05:03:05;6.23;;;2.80;;
66893;SDS011;53801;55.786;49.142;2023-04-01T05:05:30;5.23;;;2.10;;
66893;SDS011;53801;55.786;49.142;2023-04-01T05:07:55;5.50;;;2.50;;
66893;SDS011;53801;55.786;49.142;2023-04-01T05:10:21;7.40;;;2.50;;
66893;SDS011;53801;55.786;49.142;2023-04-01T05:12:46;8.87;;;2.70;;
66893;SDS011;53801;55.786;49.142;2023-04-01T05:15:12;5.83;;;3.00;;
66893;SDS011;53801;55.786;49.142;2023-04-01T05:17:37;7.00;;;3.07;;
66893;SDS011;53801;55.786;49.142;2023-04-01T05:20:03;7.45;;;2.53;;
66893;SDS011;53801;55.786;49.142;2023-04-01T05:22:28;6.35;;;2.70;;
66893;SDS011;53801;55.786;49.142;2023-04-01T05:24:54;8.07;;;2.80;;
66893;SDS011;53801;55.786;49.142;2023-04-01T05:27:20;6.93;;;3.27;;
66893;SDS011;53801;55.786;49.142;2023-04-01T05:29:45;8.95;;;2.95;;
66893;SDS011;53801;55.786;49.142;2023-04-01T05:32:11;6.83;;;2.93;;
66893;SDS011;53801;55.786;49.142;2023-04-01T05:34:36;6.73;;;2.73;;
66893;SDS011;53801;55.786;49.142;2023-04-01T05:37:02;5.33;;;2.60;;
66893;SDS011;53801;55.786;49.142;2023-04-01T05:39:27;5.60;;;2.80;;
66893;SDS011;53801;55.786;49.142;2023-04-01T05:41:53;10.38;;;2.90;;
66893;SDS011;53801;55.786;49.142;2023-04-01T05:44:25;7.67;;;2.90;;
66893;SDS011;53801;55.786;49.142;2023-04-01T05:47:11;7.10;;;3.63;;
66893;SDS011;53801;55.786;49.142;2023-04-01T06:04:32;4.30;;;3.65;;
66893;SDS011;53801;55.786;49.142;2023-04-01T06:32:06;5.27;;;2.23;;
66893;SDS011;53801;55.786;49.142;2023-04-01T06:34:47;5.50;;;2.35;;
66893;SDS011;53801;55.786;49.142;2023-04-01T06:37:38;5.00;;;2.20;;
66893;SDS011;53801;55.786;49.142;2023-04-01T06:40:44;5.70;;;3.30;;
66893;SDS011;53801;55.786;49.142;2023-04-01T06:48:51;6.90;;;2.60;;
